createdAt,value
2022-09-12T16:03:29.830Z,52.74
2022-09-12T16:06:03.103Z,52.74
2022-09-12T16:08:31.805Z,54.76
2022-09-12T16:11:03.851Z,54.92
2022-09-12T16:13:31.284Z,56.19
2022-09-12T16:16:00.975Z,55.93
2022-09-12T16:18:28.844Z,56.26
2022-09-12T16:20:57.181Z,56.54
2022-09-12T16:23:25.040Z,57.06
2022-09-12T16:26:00.684Z,56.89
2022-09-12T16:28:29.298Z,56.60
2022-09-12T16:30:58.797Z,57.14
2022-09-12T16:33:27.073Z,56.62
2022-09-12T16:36:08.420Z,57.82
2022-09-12T16:38:45.667Z,57.82
2022-09-12T16:41:15.448Z,58.10
2022-09-12T16:43:43.464Z,58.59
2022-09-12T16:46:14.224Z,58.68
2022-09-12T16:48:49.350Z,59.43
2022-09-12T16:51:23.747Z,59.28
2022-09-12T16:53:52.304Z,59.30
2022-09-12T16:56:20.276Z,59.90
2022-09-12T16:58:48.338Z,59.97
2022-09-12T17:01:22.087Z,60.37
2022-09-12T17:03:53.737Z,60.55
2022-09-12T17:06:21.954Z,61.72
2022-09-12T17:08:51.623Z,61.24
2022-09-12T17:11:25.021Z,61.28
2022-09-12T17:14:10.427Z,61.50
2022-09-12T17:16:40.271Z,61.71
2022-09-12T17:19:12.244Z,62.07
2022-09-12T17:21:39.658Z,62.85
2022-09-12T17:24:07.112Z,62.51
2022-09-12T17:26:35.096Z,62.51
2022-09-12T17:29:03.283Z,62.73
2022-09-12T17:31:30.969Z,62.76
2022-09-12T17:34:00.113Z,63.02
2022-09-12T17:36:28.534Z,63.18
2022-09-12T17:38:55.949Z,63.73
2022-09-12T17:41:26.164Z,64.22
2022-09-12T17:43:58.836Z,64.35
2022-09-12T17:46:32.847Z,64.78
2022-09-12T17:49:01.105Z,65.10
2022-09-12T17:51:31.098Z,64.60
2022-09-12T17:54:13.994Z,65.29
2022-09-12T17:56:42.781Z,65.91
2022-09-12T17:59:15.269Z,65.63
2022-09-12T18:02:02.311Z,65.14
2022-09-12T18:04:30.671Z,65.49
2022-09-12T18:07:00.271Z,65.54
2022-09-12T18:09:28.613Z,65.34
2022-09-12T18:11:56.559Z,65.64
2022-09-12T18:14:24.909Z,66.12
2022-09-12T18:16:52.620Z,65.73
2022-09-12T18:19:20.293Z,66.07
2022-09-12T18:21:47.719Z,66.25
2022-09-12T18:24:15.147Z,66.18
2022-09-12T18:26:43.957Z,66.33
2022-09-12T18:29:12.469Z,66.75
2022-09-12T18:31:39.983Z,67.02
2022-09-12T18:34:12.609Z,67.18
2022-09-12T18:36:45.605Z,67.04
2022-09-12T18:39:14.181Z,67.73
2022-09-12T18:41:41.797Z,67.58
2022-09-12T18:44:11.863Z,67.59
2022-09-12T18:46:40.140Z,68.04
2022-09-12T18:49:09.268Z,67.76
2022-09-12T18:51:37.283Z,68.85
2022-09-12T18:54:08.693Z,69.28
2022-09-12T18:56:38.840Z,69.03
2022-09-12T18:59:07.488Z,69.80
2022-09-12T19:01:37.424Z,69.64
2022-09-12T19:04:06.300Z,69.93
2022-09-12T19:06:37.299Z,70.03
2022-09-12T19:09:08.005Z,70.07
2022-09-12T19:11:38.204Z,70.07
2022-09-12T19:14:07.545Z,70.57
2022-09-12T19:16:35.482Z,70.75
2022-09-12T19:19:04.081Z,70.89
2022-09-12T19:21:32.890Z,71.27
2022-09-12T19:24:04.264Z,71.71
2022-09-12T19:26:33.183Z,72.01
2022-09-12T19:29:02.850Z,71.96
2022-09-12T19:31:31.162Z,71.93
2022-09-12T19:34:04.737Z,72.13
2022-09-12T19:36:44.931Z,72.36
2022-09-12T19:39:15.186Z,72.99
2022-09-12T19:41:43.232Z,73.72
2022-09-12T19:44:11.502Z,73.67
2022-09-12T19:46:39.303Z,73.00
2022-09-12T19:49:06.704Z,72.99
2022-09-12T19:51:34.076Z,72.80
2022-09-12T19:54:02.144Z,72.88
2022-09-12T19:56:29.588Z,72.83
2022-09-12T19:58:57.073Z,72.54
2022-09-12T20:01:29.404Z,73.11
2022-09-12T20:03:58.170Z,72.56
2022-09-12T20:06:27.291Z,72.66
2022-09-12T20:08:55.428Z,72.60
2022-09-12T20:11:24.510Z,72.89
2022-09-12T20:13:52.741Z,72.95
2022-09-12T20:16:29.290Z,72.93
2022-09-12T20:19:08.422Z,73.10
2022-09-12T20:21:36.917Z,73.14
2022-09-12T20:24:11.462Z,73.22
2022-09-12T20:26:39.268Z,73.18
2022-09-12T20:29:07.628Z,73.14
2022-09-12T20:31:37.680Z,73.07
2022-09-12T20:34:05.714Z,73.39
2022-09-12T20:36:34.079Z,73.30
2022-09-12T20:39:02.660Z,73.40
2022-09-12T20:41:33.468Z,73.42
2022-09-12T20:44:01.260Z,73.72
2022-09-12T20:46:29.381Z,73.70
2022-09-12T20:48:58.363Z,73.74
2022-09-12T20:51:27.241Z,73.87
2022-09-12T20:53:55.659Z,73.98
2022-09-12T20:56:24.190Z,74.61
2022-09-12T20:58:52.093Z,74.71
2022-09-12T21:01:20.231Z,75.25
2022-09-12T21:03:48.450Z,76.88
2022-09-12T21:06:17.021Z,75.78
2022-09-12T21:08:46.146Z,78.80
2022-09-12T21:11:14.483Z,78.50
2022-09-12T21:13:42.375Z,78.27
2022-09-12T21:16:13.052Z,78.41
2022-09-12T21:18:41.183Z,78.38
2022-09-12T21:21:11.057Z,77.82
2022-09-12T21:23:38.895Z,79.15
2022-09-12T21:26:07.815Z,80.69
2022-09-12T21:28:35.678Z,77.79
2022-09-12T21:31:03.299Z,79.19
2022-09-12T21:33:30.715Z,79.49
2022-09-12T21:36:05.908Z,79.40
2022-09-12T21:38:34.313Z,80.03
2022-09-12T21:41:10.995Z,80.15
2022-09-12T21:43:38.904Z,78.78
2022-09-12T21:46:07.374Z,79.55
2022-09-12T21:48:35.312Z,77.91
2022-09-12T21:51:03.529Z,77.77
2022-09-12T21:53:32.089Z,78.91
2022-09-12T21:56:05.502Z,77.41
2022-09-12T21:58:33.531Z,77.76
2022-09-12T22:01:01.476Z,77.75
2022-09-12T22:03:29.656Z,78.71
2022-09-12T22:05:58.924Z,78.74
2022-09-12T22:08:26.969Z,77.75
2022-09-12T22:11:02.680Z,77.79
2022-09-12T22:13:32.214Z,77.83
2022-09-12T22:16:03.345Z,78.60
2022-09-12T22:18:38.139Z,78.00
2022-09-12T22:21:08.796Z,78.63
2022-09-12T22:23:54.627Z,78.99
2022-09-12T22:26:23.073Z,78.69
2022-09-12T22:28:51.218Z,78.95
2022-09-12T22:31:18.886Z,79.74
2022-09-12T22:33:46.987Z,80.09
2022-09-12T22:36:14.569Z,78.90
2022-09-12T22:38:42.013Z,79.41
2022-09-12T22:41:11.268Z,79.67
2022-09-12T22:43:39.139Z,78.71
2022-09-12T22:46:12.177Z,80.05
2022-09-12T22:48:41.116Z,79.54
2022-09-12T22:51:09.099Z,79.86
2022-09-12T22:53:36.667Z,80.72
2022-09-12T22:56:05.481Z,80.31
2022-09-12T22:58:36.714Z,80.13
2022-09-12T23:01:06.228Z,80.87
2022-09-12T23:03:34.324Z,80.37
2022-09-12T23:06:01.862Z,81.50
2022-09-12T23:08:30.177Z,81.13
2022-09-12T23:11:05.927Z,80.77
2022-09-12T23:13:33.897Z,81.11
2022-09-12T23:16:03.252Z,80.72
2022-09-12T23:18:31.033Z,80.87
2022-09-12T23:21:00.724Z,81.51
2022-09-12T23:23:29.379Z,80.29
2022-09-12T23:26:03.648Z,79.89
2022-09-12T23:28:31.580Z,80.47
2022-09-12T23:31:00.210Z,80.22
2022-09-12T23:33:28.660Z,80.15
2022-09-12T23:36:05.075Z,80.69
2022-09-12T23:38:34.003Z,80.23
2022-09-12T23:41:04.557Z,81.20
2022-09-12T23:43:32.736Z,80.11
2022-09-12T23:46:00.749Z,80.11
2022-09-12T23:48:28.680Z,80.35
2022-09-12T23:50:56.098Z,81.17
2022-09-12T23:53:24.236Z,81.52
2022-09-12T23:55:52.223Z,80.71
2022-09-12T23:58:19.703Z,81.29
